Time;durP1;ratioP1;P1;durP2;ratioP2;P2;SDS_P1;SDS_P2;PMS_P1;PMS_P2;Temp;Humidity;BMP_temperature;BMP_pressure;BME280_temperature;BME280_humidity;BME280_pressure;Samples;Min_cycle;Max_cycle;Signal;HPM_P1;HPM_P2
2022/10/10 00:00:51;;;;;;;;;;;;;;;9.55;61.75;101613.72;4975013;28;20289;-65
2022/10/10 00:03:17;;;;;;;;;;;;;;;9.54;61.84;101593.63;4973210;28;19981;-64
2022/10/10 00:05:42;;;;;;;;;;;;;;;9.56;61.53;101599.72;4973935;28;19922;-63
2022/10/10 00:08:08;;;;;;;;;;;;;;;9.57;61.29;101596.22;4975355;28;20381;-64
2022/10/10 00:10:34;;;;;;;;;;;;;;;9.58;61.14;101593.63;4974309;28;20041;-63
2022/10/10 00:13:00;;;;;;;;;;;;;;;9.54;60.95;101599.75;4973601;28;20361;-64
2022/10/10 00:15:25;;;;;;;;;;;;;;;9.55;60.86;101593.63;4974563;28;19918;-64
2022/10/10 00:17:50;;;;;;;;;;;;;;;9.51;60.76;101594.47;4972894;28;19956;-64
2022/10/10 00:20:17;;;;;;;;;;;;;;;9.53;60.89;101583.97;4973943;28;20021;-63
2022/10/10 00:22:42;;;;;;;;;;;;;;;9.48;60.47;101586.59;4973182;28;19921;-64
2022/10/10 00:25:09;;;;;;;;;;;;;;;9.40;60.37;101577.84;4974260;28;20046;-65
2022/10/10 00:27:35;;;;;;;;;;;;;;;9.36;60.74;101583.94;4975244;28;19969;-64
2022/10/10 00:30:00;;;;;;;;;;;;;;;9.30;60.77;101576.94;4974053;28;19922;-64
2022/10/10 00:32:26;;;;;;;;;;;;;;;9.27;61.00;101576.06;4974276;28;20341;-65
2022/10/10 00:34:51;;;;;;;;;;;;;;;9.26;61.64;101579.56;4973864;28;20012;-64
2022/10/10 00:37:16;;;;;;;;;;;;;;;9.25;61.57;101577.78;5005239;28;19922;-64
2022/10/10 00:39:41;;;;;;;;;;;;;;;9.26;61.61;101590.06;4973279;28;20369;-65
2022/10/10 00:42:10;;;;;;;;;;;;;;;9.26;61.58;101584.81;4973228;28;19930;-65
2022/10/10 00:44:35;;;;;;;;;;;;;;;9.20;61.83;101590.03;4974128;28;20020;-64
2022/10/10 00:47:01;;;;;;;;;;;;;;;9.13;62.00;101578.63;4972190;28;20013;-64
2022/10/10 00:49:28;;;;;;;;;;;;;;;9.03;62.31;101572.50;4973737;28;20001;-64
2022/10/10 00:51:56;;;;;;;;;;;;;;;9.05;62.15;101580.34;4973394;28;19918;-63
2022/10/10 00:54:22;;;;;;;;;;;;;;;9.04;62.12;101574.22;4974279;28;19933;-66
2022/10/10 00:56:51;;;;;;;;;;;;;;;9.10;61.79;101576.88;4974305;28;19918;-66
2022/10/10 00:59:17;;;;;;;;;;;;;;;9.18;61.73;101565.56;4971486;28;19918;-63
2022/10/10 01:01:42;;;;;;;;;;;;;;;9.18;61.40;101576.03;4972313;28;19933;-64
2022/10/10 01:04:26;;;;;;;;;;;;;;;9.17;61.14;101574.28;4974163;28;20377;-64
2022/10/10 01:06:51;;;;;;;;;;;;;;;9.22;61.85;101572.56;4971034;28;19938;-63
2022/10/10 01:09:17;;;;;;;;;;;;;;;9.15;61.33;101568.16;4972444;28;19918;-64
2022/10/10 01:11:54;;;;;;;;;;;;;;;9.04;61.52;101571.63;4972408;28;20341;-63
2022/10/10 01:14:33;;;;;;;;;;;;;;;9.09;61.21;101576.88;4999537;28;19917;-63
2022/10/10 01:17:07;;;;;;;;;;;;;;;8.83;61.76;101558.44;4977042;28;20392;-64
2022/10/10 01:20:04;;;;;;;;;;;;;;;8.96;61.58;101562.84;4974433;28;20009;-65
2022/10/10 01:22:35;;;;;;;;;;;;;;;8.94;61.50;101551.50;4976559;28;19946;-64
2022/10/10 01:25:19;;;;;;;;;;;;;;;8.97;61.30;101546.25;4972855;28;19926;-67
2022/10/10 01:27:50;;;;;;;;;;;;;;;8.99;61.35;101549.75;4973580;28;19925;-63
2022/10/10 01:30:17;;;;;;;;;;;;;;;8.97;61.29;101554.09;4969494;28;19961;-64
2022/10/10 01:32:54;;;;;;;;;;;;;;;9.03;61.51;101553.25;4971781;28;19945;-64
2022/10/10 01:35:19;;;;;;;;;;;;;;;9.05;61.24;101544.50;4971337;28;20415;-64
2022/10/10 01:37:52;;;;;;;;;;;;;;;9.00;61.11;101548.88;4973608;28;20005;-63
2022/10/10 01:40:20;;;;;;;;;;;;;;;8.97;60.85;101551.47;4968401;28;19918;-63
2022/10/10 01:42:48;;;;;;;;;;;;;;;8.94;60.84;101553.25;4971437;28;20005;-63
2022/10/10 01:45:13;;;;;;;;;;;;;;;8.91;60.82;101547.97;4968616;28;19922;-64
2022/10/10 01:47:39;;;;;;;;;;;;;;;8.83;60.99;101548.81;4972436;28;19926;-63
2022/10/10 01:50:06;;;;;;;;;;;;;;;8.83;61.64;101554.06;4973484;28;19914;-64
2022/10/10 01:52:32;;;;;;;;;;;;;;;8.77;61.87;101548.78;4972881;28;20404;-63
2022/10/10 01:55:32;;;;;;;;;;;;;;;8.78;61.92;101544.44;4974696;28;20412;-64
2022/10/10 01:58:16;;;;;;;;;;;;;;;8.78;62.03;101545.31;4948200;29;19922;-64
2022/10/10 02:00:47;;;;;;;;;;;;;;;8.77;61.71;101545.28;4970151;28;19925;-62
2022/10/10 02:03:15;;;;;;;;;;;;;;;8.75;61.28;101539.19;4973006;28;19918;-63
2022/10/10 02:05:49;;;;;;;;;;;;;;;8.73;61.25;101544.41;4973352;28;19924;-63
2022/10/10 02:08:24;;;;;;;;;;;;;;;8.64;61.10;101547.84;4967843;28;20398;-63
2022/10/10 02:10:55;;;;;;;;;;;;;;;8.64;61.54;101558.34;4973042;28;20016;-62
2022/10/10 02:13:22;;;;;;;;;;;;;;;8.67;61.30;101554.00;4972641;28;19965;-62
2022/10/10 02:15:49;;;;;;;;;;;;;;;8.69;61.27;101554.88;4973160;28;19918;-63
2022/10/10 02:18:17;;;;;;;;;;;;;;;8.72;61.11;101547.03;4975960;28;19922;-63
2022/10/10 02:20:43;;;;;;;;;;;;;;;8.66;61.37;101545.25;4976578;28;19917;-62
2022/10/10 02:23:11;;;;;;;;;;;;;;;8.66;61.47;101549.59;4976684;28;20033;-62
2022/10/10 02:25:38;;;;;;;;;;;;;;;8.60;61.11;101546.09;4976102;28;19922;-61
2022/10/10 02:28:07;;;;;;;;;;;;;;;8.62;61.05;101547.00;4975577;28;19918;-64
2022/10/10 02:30:37;;;;;;;;;;;;;;;8.63;61.05;101546.13;4975797;28;19918;-64
2022/10/10 02:33:04;;;;;;;;;;;;;;;8.61;60.82;101545.22;4974897;28;19924;-64
2022/10/10 02:35:32;;;;;;;;;;;;;;;8.49;60.62;101541.66;4976797;28;19968;-64
2022/10/10 02:37:58;;;;;;;;;;;;;;;8.50;61.13;101539.06;4975795;28;19922;-64
2022/10/10 02:40:27;;;;;;;;;;;;;;;8.48;61.52;101546.03;4976649;28;20029;-62
2022/10/10 02:42:52;;;;;;;;;;;;;;;8.43;61.64;101539.91;4976330;28;19918;-63
2022/10/10 02:45:19;;;;;;;;;;;;;;;8.41;61.53;101539.00;4974976;28;19922;-63
2022/10/10 02:47:45;;;;;;;;;;;;;;;8.37;61.93;101537.22;4976095;28;19926;-63
2022/10/10 02:50:10;;;;;;;;;;;;;;;8.39;61.68;101539.00;4976436;28;19921;-63
2022/10/10 02:52:36;;;;;;;;;;;;;;;8.29;62.05;101533.66;4975957;28;19980;-63
2022/10/10 02:55:01;;;;;;;;;;;;;;;8.23;61.85;101536.25;4976184;28;19922;-63
2022/10/10 02:57:27;;;;;;;;;;;;;;;8.21;61.95;101540.59;4976918;28;19914;-64
2022/10/10 02:59:52;;;;;;;;;;;;;;;8.14;61.88;101537.94;4976269;28;19917;-64
2022/10/10 03:02:17;;;;;;;;;;;;;;;8.08;61.94;101530.03;4975123;28;19926;-65
2022/10/10 03:04:43;;;;;;;;;;;;;;;8.12;62.09;101529.19;4975751;28;19965;-63
2022/10/10 03:07:09;;;;;;;;;;;;;;;8.15;62.24;101536.19;4975417;28;19932;-64
2022/10/10 03:09:34;;;;;;;;;;;;;;;8.17;61.92;101530.97;4974982;28;19918;-64
2022/10/10 03:11:59;;;;;;;;;;;;;;;8.18;61.78;101522.22;4975677;28;19918;-65
2022/10/10 03:14:25;;;;;;;;;;;;;;;8.11;61.22;101521.34;4974717;28;19957;-64
2022/10/10 03:16:50;;;;;;;;;;;;;;;8.13;61.43;101523.09;4974536;28;19968;-64
2022/10/10 03:19:15;;;;;;;;;;;;;;;8.14;61.77;101524.84;4975877;28;19945;-63
2022/10/10 03:21:41;;;;;;;;;;;;;;;8.13;61.96;101520.47;4974900;28;19950;-63
2022/10/10 03:24:06;;;;;;;;;;;;;;;8.13;61.62;101530.94;4975427;28;19969;-64
2022/10/10 03:26:31;;;;;;;;;;;;;;;8.14;61.65;101524.84;4975776;28;20037;-63
2022/10/10 03:28:56;;;;;;;;;;;;;;;8.15;61.64;101526.59;4973813;28;19980;-64
2022/10/10 03:31:22;;;;;;;;;;;;;;;8.14;61.27;101522.25;4974764;28;20289;-64
2022/10/10 03:33:48;;;;;;;;;;;;;;;8.08;61.25;101524.81;4973274;28;20012;-65
2022/10/10 03:36:13;;;;;;;;;;;;;;;7.90;62.30;101520.31;4975567;28;19918;-64
2022/10/10 03:38:39;;;;;;;;;;;;;;;7.93;61.76;101524.69;4974903;28;20024;-64
2022/10/10 03:41:05;;;;;;;;;;;;;;;7.97;62.50;101525.59;4974242;28;20493;-63
2022/10/10 03:43:30;;;;;;;;;;;;;;;7.78;62.80;101519.34;4973962;28;19997;-65
2022/10/10 03:45:55;;;;;;;;;;;;;;;7.64;63.55;101527.94;4972910;28;20009;-63
2022/10/10 03:48:21;;;;;;;;;;;;;;;7.57;63.96;101520.03;4975038;28;19918;-63
2022/10/10 03:50:46;;;;;;;;;;;;;;;7.62;63.89;101519.22;4975200;28;19917;-64
2022/10/10 03:53:11;;;;;;;;;;;;;;;7.69;63.33;101514.03;4974629;28;19918;-64
2022/10/10 03:55:40;;;;;;;;;;;;;;;7.71;63.33;101517.56;4974805;28;19964;-64
2022/10/10 03:58:05;;;;;;;;;;;;;;;7.77;62.97;101517.59;4973353;28;19918;-63
2022/10/10 04:00:31;;;;;;;;;;;;;;;7.78;62.91;101514.09;4975382;28;19918;-64
2022/10/10 04:02:56;;;;;;;;;;;;;;;7.80;62.87;101517.63;4974130;28;20013;-64
2022/10/10 04:05:21;;;;;;;;;;;;;;;7.79;62.49;101515.88;4973594;28;19944;-65
2022/10/10 04:07:47;;;;;;;;;;;;;;;7.66;62.88;101517.53;4973507;28;20389;-63
2022/10/10 04:10:12;;;;;;;;;;;;;;;7.67;62.99;101515.78;4973639;28;20006;-63
2022/10/10 04:12:37;;;;;;;;;;;;;;;7.60;63.03;101512.22;4974953;28;19922;-64
2022/10/10 04:15:03;;;;;;;;;;;;;;;7.46;63.17;101506.88;4973296;28;19998;-64
2022/10/10 04:17:28;;;;;;;;;;;;;;;7.53;63.08;101516.50;4974009;28;19925;-64
2022/10/10 04:19:53;;;;;;;;;;;;;;;7.58;62.97;101522.69;4972748;28;19928;-63
2022/10/10 04:22:19;;;;;;;;;;;;;;;7.55;62.79;101520.03;4972099;28;19981;-62
2022/10/10 04:24:44;;;;;;;;;;;;;;;7.43;63.81;101517.31;4956228;28;19926;-65
2022/10/10 04:27:10;;;;;;;;;;;;;;;7.55;63.92;101512.19;4974785;28;19926;-64
2022/10/10 04:29:35;;;;;;;;;;;;;;;7.54;63.44;101513.06;4975351;28;19965;-63
2022/10/10 04:32:00;;;;;;;;;;;;;;;7.59;63.40;101513.97;4973357;28;19941;-62
2022/10/10 04:34:27;;;;;;;;;;;;;;;7.53;62.96;101511.28;4972662;28;19976;-63
2022/10/10 04:36:52;;;;;;;;;;;;;;;7.43;62.99;101509.47;4973715;28;19937;-64
2022/10/10 04:39:17;;;;;;;;;;;;;;;7.51;63.30;101507.78;4974066;28;19918;-64
2022/10/10 04:41:43;;;;;;;;;;;;;;;7.58;63.59;101504.38;4972872;28;20040;-63
2022/10/10 04:44:08;;;;;;;;;;;;;;;7.68;63.81;101502.69;4974102;28;19929;-64
2022/10/10 04:46:33;;;;;;;;;;;;;;;7.68;64.06;101499.22;4974840;28;20486;-64
2022/10/10 04:48:58;;;;;;;;;;;;;;;7.72;64.82;101493.13;4973458;28;19936;-63
2022/10/10 04:51:24;;;;;;;;;;;;;;;7.86;64.07;101491.50;4974431;28;19929;-62
2022/10/10 04:53:49;;;;;;;;;;;;;;;8.00;65.78;101497.69;4973997;28;20373;-62
2022/10/10 04:56:15;;;;;;;;;;;;;;;8.00;63.30;101489.84;5005850;28;19930;-63
2022/10/10 04:58:40;;;;;;;;;;;;;;;7.89;64.89;101491.50;4973515;28;19922;-63
2022/10/10 05:01:05;;;;;;;;;;;;;;;7.82;63.60;101485.38;4974358;28;19922;-64
2022/10/10 05:03:31;;;;;;;;;;;;;;;7.89;63.65;101487.16;4974418;28;19958;-62
2022/10/10 05:05:56;;;;;;;;;;;;;;;7.92;63.45;101486.31;4971694;28;19930;-61
2022/10/10 05:08:21;;;;;;;;;;;;;;;7.95;64.57;101491.56;4973590;28;19922;-62
2022/10/10 05:10:47;;;;;;;;;;;;;;;8.09;63.30;101483.78;4977097;28;19962;-63
2022/10/10 05:13:13;;;;;;;;;;;;;;;8.21;63.56;101493.47;4973492;28;19954;-63
2022/10/10 05:15:39;;;;;;;;;;;;;;;8.23;63.60;101491.75;4974496;28;19922;-62
2022/10/10 05:18:04;;;;;;;;;;;;;;;8.34;63.38;101479.59;4973593;28;19925;-63
2022/10/10 05:20:30;;;;;;;;;;;;;;;8.37;63.11;101475.25;4973292;28;20305;-63
2022/10/10 05:22:55;;;;;;;;;;;;;;;8.43;62.94;101473.53;4971909;28;19922;-62
2022/10/10 05:25:20;;;;;;;;;;;;;;;8.48;64.29;101477.06;5004706;28;20017;-63
2022/10/10 05:27:45;;;;;;;;;;;;;;;8.53;63.01;101472.69;4974054;28;19958;-63
2022/10/10 05:30:11;;;;;;;;;;;;;;;8.58;62.66;101476.25;4973474;28;19999;-64
2022/10/10 05:32:37;;;;;;;;;;;;;;;8.58;62.31;101473.63;4970155;28;20358;-63
2022/10/10 05:35:03;;;;;;;;;;;;;;;8.62;62.32;101475.38;4984132;28;19921;-65
2022/10/10 05:37:29;;;;;;;;;;;;;;;8.61;61.88;101469.25;4972398;28;19922;-62
2022/10/10 05:39:54;;;;;;;;;;;;;;;8.65;62.00;101470.13;4974083;28;19933;-62
2022/10/10 05:42:19;;;;;;;;;;;;;;;8.67;62.21;101471.03;4974870;28;19925;-63
2022/10/10 05:44:45;;;;;;;;;;;;;;;8.66;62.37;101466.66;4974162;28;19929;-63
2022/10/10 05:47:10;;;;;;;;;;;;;;;8.79;62.36;101467.56;4974072;28;19968;-63
2022/10/10 05:49:35;;;;;;;;;;;;;;;8.71;62.69;101477.16;4973428;28;19918;-62
2022/10/10 05:52:01;;;;;;;;;;;;;;;8.84;62.62;101473.69;4975888;28;20376;-63
2022/10/10 05:54:26;;;;;;;;;;;;;;;8.74;62.98;101467.56;4980237;28;19976;-64
2022/10/10 05:56:51;;;;;;;;;;;;;;;8.93;62.63;101470.22;4993874;28;19917;-64
2022/10/10 05:59:17;;;;;;;;;;;;;;;9.48;61.85;101471.16;4997578;28;20274;-64
2022/10/10 06:01:42;;;;;;;;;;;;;;;10.28;58.96;101471.94;4981770;28;19926;-63
2022/10/10 06:04:07;;;;;;;;;;;;;;;10.51;58.38;101469.25;4976487;28;19918;-63
2022/10/10 06:06:32;;;;;;;;;;;;;;;10.55;58.58;101455.22;4978233;28;19961;-63
2022/10/10 06:08:58;;;;;;;;;;;;;;;9.83;60.55;101462.41;4973705;28;20017;-63
2022/10/10 06:11:24;;;;;;;;;;;;;;;9.62;61.58;101461.56;4980945;28;19925;-62
2022/10/10 06:13:53;;;;;;;;;;;;;;;9.53;62.24;101458.91;4997454;28;19921;-65
2022/10/10 06:16:18;;;;;;;;;;;;;;;9.65;62.21;101457.16;4984211;28;19914;-65
2022/10/10 06:18:44;;;;;;;;;;;;;;;9.74;62.37;101458.03;4977891;28;19918;-64
2022/10/10 06:21:09;;;;;;;;;;;;;;;9.82;63.04;101460.66;4977751;28;19926;-63
2022/10/10 06:23:34;;;;;;;;;;;;;;;9.92;62.89;101458.88;4977685;28;19965;-65
2022/10/10 06:26:00;;;;;;;;;;;;;;;10.07;62.54;101457.09;4967399;28;19918;-64
2022/10/10 06:28:25;;;;;;;;;;;;;;;10.15;62.98;101454.47;4977355;28;19922;-64
2022/10/10 06:30:51;;;;;;;;;;;;;;;10.25;63.03;101452.69;4977218;28;19922;-63
2022/10/10 06:33:17;;;;;;;;;;;;;;;10.38;63.18;101449.16;4976216;28;20322;-64
2022/10/10 06:35:44;;;;;;;;;;;;;;;10.53;64.21;101445.56;4977019;28;20010;-63
2022/10/10 06:38:10;;;;;;;;;;;;;;;10.61;63.02;101449.03;4975625;28;19918;-63
2022/10/10 06:40:35;;;;;;;;;;;;;;;10.81;62.27;101438.44;4977368;28;20457;-63
2022/10/10 06:43:00;;;;;;;;;;;;;;;10.87;62.54;101441.03;4976185;28;19918;-63
2022/10/10 06:45:26;;;;;;;;;;;;;;;10.99;63.21;101440.94;4974784;28;20270;-62
2022/10/10 06:47:51;;;;;;;;;;;;;;;11.16;63.32;101445.22;4976607;28;19918;-62
2022/10/10 06:50:16;;;;;;;;;;;;;;;11.40;63.24;101441.53;4976270;28;19922;-64
2022/10/10 06:52:42;;;;;;;;;;;;;;;11.55;61.13;101444.03;4976306;28;19933;-63
2022/10/10 06:55:07;;;;;;;;;;;;;;;12.05;63.18;101448.84;4977427;28;19918;-64
2022/10/10 06:57:33;;;;;;;;;;;;;;;12.00;61.50;101449.78;4976728;28;19918;-63
2022/10/10 06:59:58;;;;;;;;;;;;;;;12.19;59.99;101445.19;4967537;28;19932;-62
2022/10/10 07:02:23;;;;;;;;;;;;;;;12.35;61.89;101440.59;4974781;28;19922;-63
2022/10/10 07:04:49;;;;;;;;;;;;;;;12.47;59.76;101441.31;4974646;28;19958;-64
2022/10/10 07:07:14;;;;;;;;;;;;;;;12.42;59.77;101445.78;4975785;28;20377;-64
2022/10/10 07:09:39;;;;;;;;;;;;;;;12.69;60.54;101441.94;4976880;28;20008;-63
2022/10/10 07:12:05;;;;;;;;;;;;;;;12.74;58.70;101441.88;4975502;28;19918;-63
2022/10/10 07:14:30;;;;;;;;;;;;;;;12.69;59.71;101444.56;4973438;28;20045;-62
2022/10/10 07:16:55;;;;;;;;;;;;;;;12.94;59.62;101442.44;4976946;28;20004;-64
2022/10/10 07:19:23;;;;;;;;;;;;;;;13.02;57.92;101437.94;4975474;28;20294;-63
2022/10/10 07:21:49;;;;;;;;;;;;;;;13.11;57.58;101439.56;4971458;28;19922;-63
2022/10/10 07:24:14;;;;;;;;;;;;;;;13.20;57.72;101430.63;4975693;28;19929;-63
2022/10/10 07:26:40;;;;;;;;;;;;;;;13.21;57.53;101421.81;4975842;28;20008;-63
2022/10/10 07:29:05;;;;;;;;;;;;;;;13.21;58.86;101429.75;4975646;28;19922;-63
2022/10/10 07:31:31;;;;;;;;;;;;;;;13.29;58.92;101431.41;4975708;28;19929;-63
2022/10/10 07:33:56;;;;;;;;;;;;;;;13.63;58.00;101427.31;4975840;28;19922;-64
2022/10/10 07:36:22;;;;;;;;;;;;;;;13.66;58.33;101421.97;4975194;28;19918;-63
2022/10/10 07:38:50;;;;;;;;;;;;;;;13.66;56.56;101421.97;4975617;28;19958;-64
2022/10/10 07:41:16;;;;;;;;;;;;;;;13.78;56.40;101417.34;4975303;28;19925;-64
2022/10/10 07:43:41;;;;;;;;;;;;;;;13.87;57.08;101420.69;4975931;28;19918;-63
2022/10/10 07:46:13;;;;;;;;;;;;;;;14.05;56.14;101413.31;4975112;28;19921;-63
2022/10/10 07:48:38;;;;;;;;;;;;;;;13.95;56.95;101424.94;4969356;28;19922;-65
2022/10/10 07:51:07;;;;;;;;;;;;;;;14.20;57.95;101416.53;4975324;28;20369;-63
2022/10/10 07:53:33;;;;;;;;;;;;;;;14.26;56.87;101417.28;4975278;28;19925;-64
2022/10/10 07:55:58;;;;;;;;;;;;;;;14.37;56.44;101416.19;4973979;28;19922;-62
2022/10/10 07:58:24;;;;;;;;;;;;;;;14.50;56.84;101408.00;4974816;28;19917;-63
2022/10/10 08:00:49;;;;;;;;;;;;;;;14.56;56.38;101398.19;4974566;28;20323;-63
2022/10/10 08:03:14;;;;;;;;;;;;;;;14.72;56.71;101402.22;4974965;28;19918;-64
2022/10/10 08:05:40;;;;;;;;;;;;;;;14.70;55.17;101398.75;4974279;28;20046;-63
2022/10/10 08:08:06;;;;;;;;;;;;;;;14.82;56.24;101392.31;4978210;28;19924;-64
2022/10/10 08:10:31;;;;;;;;;;;;;;;14.94;56.47;101392.03;4974514;28;19918;-64
2022/10/10 08:12:56;;;;;;;;;;;;;;;14.99;54.82;101383.06;4974808;28;19922;-64
2022/10/10 08:15:22;;;;;;;;;;;;;;;15.01;55.55;101383.03;4973049;28;19929;-64
2022/10/10 08:17:47;;;;;;;;;;;;;;;15.07;54.59;101374.94;4973986;28;20067;-63
2022/10/10 08:20:12;;;;;;;;;;;;;;;15.02;54.83;101369.75;4973534;28;20391;-64
2022/10/10 08:22:38;;;;;;;;;;;;;;;15.06;54.81;101372.34;4973624;28;19969;-63
2022/10/10 08:25:04;;;;;;;;;;;;;;;15.06;55.19;101370.56;4974866;28;19918;-64
2022/10/10 08:27:29;;;;;;;;;;;;;;;15.25;55.02;101368.34;4974226;28;19930;-62
2022/10/10 08:29:54;;;;;;;;;;;;;;;15.27;54.56;101367.38;4974235;28;19926;-65
2022/10/10 08:32:20;;;;;;;;;;;;;;;15.42;54.62;101366.13;4975071;28;20392;-64
2022/10/10 08:34:45;;;;;;;;;;;;;;;15.58;55.08;101357.75;4996476;28;19941;-63
2022/10/10 08:37:10;;;;;;;;;;;;;;;15.82;55.32;101351.81;4955703;28;19918;-63
2022/10/10 08:39:36;;;;;;;;;;;;;;;16.04;52.29;101348.56;4965470;28;20024;-65
2022/10/10 08:42:13;;;;;;;;;;;;;;;16.12;51.85;101352.75;4974065;28;20038;-64
2022/10/10 08:44:40;;;;;;;;;;;;;;;16.11;52.55;101344.81;4974404;28;19949;-64
2022/10/10 08:47:08;;;;;;;;;;;;;;;16.20;52.30;101347.22;4974252;28;19925;-64
2022/10/10 08:49:39;;;;;;;;;;;;;;;16.25;52.09;101343.50;4972447;28;19924;-64
2022/10/10 08:52:07;;;;;;;;;;;;;;;16.36;54.03;101337.88;4974187;28;19953;-65
2022/10/10 08:54:35;;;;;;;;;;;;;;;16.44;51.62;101341.16;4974108;28;20006;-64
2022/10/10 08:57:03;;;;;;;;;;;;;;;16.74;51.84;101333.19;4974423;28;20374;-65
2022/10/10 08:59:32;;;;;;;;;;;;;;;16.83;51.97;101326.69;4974086;28;20380;-65
2022/10/10 09:02:04;;;;;;;;;;;;;;;16.78;52.00;101321.56;4969164;28;19945;-64
2022/10/10 09:04:32;;;;;;;;;;;;;;;16.65;51.15;101315.75;4973319;28;19924;-64
2022/10/10 09:07:06;;;;;;;;;;;;;;;16.81;51.62;101310.84;4974385;28;19985;-65
2022/10/10 09:09:34;;;;;;;;;;;;;;;16.75;52.11;101305.72;4974106;28;20294;-66
2022/10/10 09:12:03;;;;;;;;;;;;;;;16.86;54.15;101308.91;4970372;28;19918;-65
2022/10/10 09:14:38;;;;;;;;;;;;;;;16.94;52.08;101312.16;4970996;28;19984;-64
2022/10/10 09:17:22;;;;;;;;;;;;;;;17.01;51.35;101304.00;4968099;28;19941;-63
2022/10/10 09:19:57;;;;;;;;;;;;;;;17.09;50.68;101307.28;4973257;28;19918;-66
2022/10/10 09:22:27;;;;;;;;;;;;;;;17.16;51.86;101298.19;4973822;28;20012;-65
2022/10/10 09:24:56;;;;;;;;;;;;;;;17.10;49.41;101293.94;4974010;28;19918;-65
2022/10/10 09:27:24;;;;;;;;;;;;;;;17.31;51.99;101287.00;4975063;28;20322;-64
2022/10/10 09:29:55;;;;;;;;;;;;;;;17.48;51.36;101284.63;4976437;28;19980;-64
2022/10/10 09:32:22;;;;;;;;;;;;;;;17.49;51.40;101281.03;4976491;28;19930;-63
2022/10/10 09:34:52;;;;;;;;;;;;;;;17.55;50.42;101269.31;4977594;28;20389;-64
2022/10/10 09:37:22;;;;;;;;;;;;;;;17.75;50.45;101271.25;4977913;28;19972;-63
2022/10/10 09:39:51;;;;;;;;;;;;;;;17.86;49.75;101268.22;4977280;28;20001;-64
2022/10/10 09:42:19;;;;;;;;;;;;;;;17.90;52.57;101264.53;4977842;28;19964;-62
2022/10/10 09:44:45;;;;;;;;;;;;;;;18.02;50.73;101261.38;4973142;28;20285;-63
2022/10/10 09:47:15;;;;;;;;;;;;;;;18.20;49.41;101266.00;4977282;28;19929;-65
2022/10/10 09:49:41;;;;;;;;;;;;;;;18.29;47.65;101247.94;4978124;28;20088;-65
2022/10/10 09:52:20;;;;;;;;;;;;;;;18.30;47.60;101247.88;4978181;28;19918;-65
2022/10/10 09:54:48;;;;;;;;;;;;;;;18.29;48.91;101245.28;4976654;28;20356;-66
2022/10/10 09:57:14;;;;;;;;;;;;;;;18.35;49.46;101251.22;4978212;28;19918;-65
2022/10/10 09:59:40;;;;;;;;;;;;;;;18.38;49.70;101240.44;4978141;28;19914;-65
2022/10/10 10:02:25;;;;;;;;;;;;;;;18.35;48.19;101235.28;4977266;28;19918;-63
2022/10/10 10:04:51;;;;;;;;;;;;;;;18.42;47.87;101230.53;4978296;28;19920;-64
2022/10/10 10:07:18;;;;;;;;;;;;;;;18.48;49.16;101221.47;4978114;28;19921;-64
2022/10/10 10:09:51;;;;;;;;;;;;;;;18.43;47.52;101222.53;4977767;28;20016;-65
2022/10/10 10:12:20;;;;;;;;;;;;;;;18.48;50.07;101219.66;4977805;28;19914;-65
2022/10/10 10:14:45;;;;;;;;;;;;;;;18.51;46.58;101208.91;4977973;28;19921;-65
2022/10/10 10:17:14;;;;;;;;;;;;;;;18.52;47.71;101201.78;4977574;28;19918;-66
2022/10/10 10:19:41;;;;;;;;;;;;;;;18.49;49.31;101194.78;4972683;28;19988;-64
2022/10/10 10:22:22;;;;;;;;;;;;;;;18.54;48.70;101194.59;4976675;28;19922;-65
2022/10/10 10:24:47;;;;;;;;;;;;;;;18.67;48.74;101183.38;4977136;28;19918;-65
2022/10/10 10:27:17;;;;;;;;;;;;;;;18.65;45.75;101173.72;4976568;28;20444;-65
2022/10/10 10:29:47;;;;;;;;;;;;;;;18.63;45.36;101178.22;4976483;28;19918;-65
2022/10/10 10:32:12;;;;;;;;;;;;;;;18.68;44.23;101178.91;4975882;28;20000;-64
2022/10/10 10:34:37;;;;;;;;;;;;;;;18.70;46.80;101177.06;4977582;28;19914;-65
2022/10/10 10:37:12;;;;;;;;;;;;;;;18.74;46.61;101168.03;4976523;28;19918;-65
2022/10/10 10:39:50;;;;;;;;;;;;;;;18.73;46.12;101163.63;4976369;28;20378;-64
2022/10/10 10:42:21;;;;;;;;;;;;;;;18.78;45.54;101158.09;4976577;28;19918;-65
2022/10/10 10:44:47;;;;;;;;;;;;;;;18.80;45.58;101154.47;4976097;28;19933;-64
2022/10/10 10:47:15;;;;;;;;;;;;;;;18.72;43.79;101153.94;4976155;28;19924;-65
2022/10/10 10:49:59;;;;;;;;;;;;;;;18.77;45.11;101153.72;4975409;28;19934;-66
2022/10/10 10:52:30;;;;;;;;;;;;;;;18.80;45.07;101146.47;4974282;28;20412;-63
2022/10/10 10:55:18;;;;;;;;;;;;;;;18.89;46.05;101139.88;4993207;28;19920;-64
2022/10/10 10:57:43;;;;;;;;;;;;;;;18.98;46.75;101134.13;4996357;28;19945;-65
2022/10/10 11:00:14;;;;;;;;;;;;;;;18.89;45.52;101129.22;4977413;28;19914;-66
2022/10/10 11:02:52;;;;;;;;;;;;;;;18.94;44.86;101120.09;4986622;28;19910;-65
2022/10/10 11:05:31;;;;;;;;;;;;;;;19.10;47.36;101127.38;4994980;28;19917;-64
2022/10/10 11:08:00;;;;;;;;;;;;;;;19.14;46.60;101107.66;4977189;28;19921;-64
2022/10/10 11:10:37;;;;;;;;;;;;;;;19.16;43.15;101100.50;4976720;28;19920;-64
2022/10/10 11:13:05;;;;;;;;;;;;;;;19.17;44.08;101094.22;4974552;28;20399;-64
2022/10/10 11:15:42;;;;;;;;;;;;;;;19.12;46.75;101097.09;4976059;28;19945;-65
2022/10/10 11:18:11;;;;;;;;;;;;;;;19.13;44.15;101087.31;4978025;28;20385;-64
2022/10/10 11:20:36;;;;;;;;;;;;;;;19.20;44.98;101091.41;4980930;28;20301;-65
2022/10/10 11:23:09;;;;;;;;;;;;;;;19.23;46.05;101075.31;4976056;28;19969;-65
2022/10/10 11:25:44;;;;;;;;;;;;;;;19.28;45.17;101080.41;4975840;28;20305;-65
2022/10/10 11:28:17;;;;;;;;;;;;;;;19.37;44.35;101072.84;4976015;28;19914;-64
2022/10/10 11:31:03;;;;;;;;;;;;;;;19.44;44.85;101074.28;4971111;28;19933;-65
2022/10/10 11:33:31;;;;;;;;;;;;;;;19.44;45.32;101074.28;4992904;28;19922;-65
2022/10/10 11:36:00;;;;;;;;;;;;;;;19.42;44.17;101061.94;4994565;28;19921;-64
2022/10/10 11:38:40;;;;;;;;;;;;;;;19.49;45.79;101059.88;4995600;28;20442;-65
2022/10/10 11:41:24;;;;;;;;;;;;;;;19.51;46.75;101055.31;4995713;28;19945;-65
2022/10/10 11:44:00;;;;;;;;;;;;;;;19.44;45.75;101052.09;4995710;28;19920;-64
2022/10/10 11:46:48;;;;;;;;;;;;;;;19.48;46.09;101047.50;4976421;28;19965;-64
2022/10/10 11:49:18;;;;;;;;;;;;;;;19.52;44.33;101041.94;4972583;28;20005;-64
2022/10/10 11:52:01;;;;;;;;;;;;;;;19.60;44.24;101041.56;4975886;28;19914;-64
2022/10/10 11:54:27;;;;;;;;;;;;;;;19.59;46.60;101026.47;4991201;28;20262;-65
2022/10/10 11:56:56;;;;;;;;;;;;;;;19.58;47.08;101027.44;4975763;28;19921;-65
2022/10/10 11:59:25;;;;;;;;;;;;;;;19.70;45.49;101021.53;4976152;28;19922;-65
2022/10/10 12:01:52;;;;;;;;;;;;;;;19.59;46.87;101018.50;4975789;28;20386;-65
2022/10/10 12:04:17;;;;;;;;;;;;;;;19.80;43.93;101022.81;4975040;28;20021;-64
2022/10/10 12:06:46;;;;;;;;;;;;;;;19.72;46.67;101005.47;4975312;28;20025;-64
2022/10/10 12:09:14;;;;;;;;;;;;;;;19.78;46.06;101011.34;4975953;28;19977;-64
2022/10/10 12:11:43;;;;;;;;;;;;;;;19.85;47.31;100999.44;4979210;28;19917;-64
2022/10/10 12:14:12;;;;;;;;;;;;;;;19.92;44.75;101000.00;4970822;28;19953;-64
2022/10/10 12:16:37;;;;;;;;;;;;;;;19.87;43.88;100997.56;4956250;29;20003;-64
2022/10/10 12:19:13;;;;;;;;;;;;;;;19.86;45.44;100993.16;4955996;28;19931;-65
2022/10/10 12:21:53;;;;;;;;;;;;;;;19.82;46.77;100991.59;4956254;29;19915;-65
2022/10/10 12:24:18;;;;;;;;;;;;;;;19.89;47.40;100986.81;4956362;28;19977;-66
2022/10/10 12:26:55;;;;;;;;;;;;;;;20.03;46.61;100975.44;4956209;28;20421;-66
2022/10/10 12:29:41;;;;;;;;;;;;;;;20.03;47.19;100967.44;4956133;29;19918;-65
2022/10/10 12:32:12;;;;;;;;;;;;;;;20.08;47.21;100965.41;4971052;28;19914;-65
2022/10/10 12:34:39;;;;;;;;;;;;;;;20.03;46.09;100967.44;4975458;28;20056;-65
2022/10/10 12:37:27;;;;;;;;;;;;;;;20.07;46.43;100966.34;4973670;28;20004;-65
2022/10/10 12:40:12;;;;;;;;;;;;;;;20.04;46.45;100959.38;4974984;28;19914;-64
2022/10/10 12:42:47;;;;;;;;;;;;;;;20.10;46.81;100947.50;4967891;28;19920;-66
2022/10/10 12:45:27;;;;;;;;;;;;;;;19.93;45.95;100943.91;4973762;28;20009;-66